N651CL KAVX-MMMX
Flight info
| Callsign | N651CL |
|---|---|
| Flight time | N/A |
| Altitude | 37000 |
| Route | KAVX DCT WELEG DCT URSEV DCT GOLFO DCT NOTOT DCT NABAS DCT ELEGU DCT KATLI DCT CAFIS DCT AVOXU DCT DGO DCT VEVRA DCT SEKUB DCT XOLGA DCT ESTIV DCT ZCL DCT GABLI DCT HORTA DCT PIGVU DCT QET DCT DARAN DARA3A0 MMMX |
| Aircraft | F4F/L-V/N |
Departure
| Time | 2026-04-19 21:45 |
|---|---|
| Airport | Catalina Airport (KAVX) |
Arrival
| Time | N/A |
|---|---|
| Airport | Mexico City Benito Juárez International Airport (MMMX) |
| Time | Latitude | Longitude | Altitude | Speed | Heading |
|---|---|---|---|---|---|
| 2026-04-19 21:35 | 33.40391 | -118.41523 | 1589 ft | 0 kts | 148° |
| 2026-04-19 21:37 | 33.40388 | -118.41521 | 1589 ft | 2 kts | 149° |
| 2026-04-19 21:38 | 33.40383 | -118.41517 | 1590 ft | 2 kts | 149° |
| 2026-04-19 21:38 | 33.40380 | -118.41515 | 1590 ft | 0 kts | 148° |
| 2026-04-19 21:38 | 33.40373 | -118.41510 | 1591 ft | 4 kts | 150° |
| 2026-04-19 21:38 | 33.40340 | -118.41482 | 1591 ft | 0 kts | 65° |
| 2026-04-19 21:39 | 33.40341 | -118.41480 | 1592 ft | 1 kts | 68° |
| 2026-04-19 21:39 | 33.40391 | -118.41524 | 1593 ft | 0 kts | 148° |
| 2026-04-19 21:40 | 33.40388 | -118.41521 | 1589 ft | 1 kts | 146° |
| 2026-04-19 21:40 | 33.40382 | -118.41516 | 1590 ft | 0 kts | 137° |
| 2026-04-19 21:41 | 33.40384 | -118.41502 | 1590 ft | 5 kts | 38° |
| 2026-04-19 21:41 | 33.40414 | -118.41499 | 1586 ft | 0 kts | 341° |
| 2026-04-19 21:41 | 33.40435 | -118.41510 | 1584 ft | 14 kts | 348° |
| 2026-04-19 21:42 | 33.40519 | -118.41484 | 1579 ft | 13 kts | 42° |
| 2026-04-19 21:42 | 33.40560 | -118.41403 | 1573 ft | 10 kts | 46° |
| 2026-04-19 21:42 | 33.40608 | -118.41324 | 1566 ft | 13 kts | 55° |
| 2026-04-19 21:42 | 33.40660 | -118.41236 | 1558 ft | 14 kts | 53° |
| 2026-04-19 21:43 | 33.40696 | -118.41176 | 1553 ft | 5 kts | 54° |
| 2026-04-19 21:43 | 33.40700 | -118.41170 | 1553 ft | 1 kts | 54° |
| 2026-04-19 21:43 | 33.40702 | -118.41167 | 1552 ft | 2 kts | 54° |
| 2026-04-19 21:43 | 33.40713 | -118.41148 | 1551 ft | 0 kts | 64° |
| 2026-04-19 21:44 | 33.40714 | -118.41141 | 1551 ft | 1 kts | 52° |
| 2026-04-19 21:44 | 33.40718 | -118.41136 | 1551 ft | 0 kts | 30° |
| 2026-04-19 21:44 | 33.40742 | -118.41171 | 1550 ft | 9 kts | 251° |
| 2026-04-19 21:44 | 33.40730 | -118.41194 | 1551 ft | 0 kts | 235° |
| 2026-04-19 21:45 | 33.40621 | -118.41369 | 1569 ft | 64 kts | 227° |
| 2026-04-19 21:45 | 33.40267 | -118.41849 | 1802 ft | 88 kts | 248° |
| 2026-04-19 21:45 | 33.39762 | -118.42687 | 1949 ft | 149 kts | 197° |
| 2026-04-19 21:45 | 33.38880 | -118.42092 | 2364 ft | 168 kts | 113° |
| 2026-04-19 21:46 | 33.38957 | -118.40641 | 2656 ft | 185 kts | 75° |
| 2026-04-19 21:46 | 33.39322 | -118.39240 | 3295 ft | 172 kts | 75° |
| 2026-04-19 21:46 | 33.39719 | -118.37834 | 3729 ft | 178 kts | 77° |
| 2026-04-19 21:46 | 33.39987 | -118.36445 | 4363 ft | 176 kts | 84° |
| 2026-04-19 21:47 | 33.40152 | -118.34937 | 4618 ft | 183 kts | 86° |
| 2026-04-19 21:47 | 33.40256 | -118.33467 | 5030 ft | 178 kts | 92° |
| 2026-04-19 21:47 | 33.40236 | -118.31927 | 5630 ft | 182 kts | 93° |
| 2026-04-19 21:47 | 33.40334 | -118.30417 | 6405 ft | 185 kts | 86° |
| 2026-04-19 21:48 | 33.40624 | -118.28916 | 7127 ft | 187 kts | 75° |
| 2026-04-19 21:48 | 33.41180 | -118.27452 | 7665 ft | 202 kts | 59° |
| 2026-04-19 21:48 | 33.42253 | -118.26295 | 8190 ft | 208 kts | 39° |
| 2026-04-19 21:48 | 33.43332 | -118.25172 | 8861 ft | 206 kts | 49° |
| 2026-04-19 21:49 | 33.44189 | -118.23787 | 9215 ft | 208 kts | 62° |
| 2026-04-19 21:49 | 33.44864 | -118.22240 | 9456 ft | 211 kts | 69° |
| 2026-04-19 21:49 | 33.45353 | -118.20595 | 9894 ft | 207 kts | 82° |
| 2026-04-19 21:49 | 33.45418 | -118.18883 | 10221 ft | 206 kts | 101° |
| 2026-04-19 21:50 | 33.45120 | -118.17214 | 10588 ft | 204 kts | 106° |
| 2026-04-19 21:50 | 33.44789 | -118.15570 | 10956 ft | 204 kts | 110° |
| 2026-04-19 21:50 | 33.44365 | -118.13951 | 11310 ft | 203 kts | 112° |
| 2026-04-19 21:50 | 33.43995 | -118.12292 | 11522 ft | 211 kts | 106° |
| 2026-04-19 21:51 | 33.43722 | -118.10551 | 11798 ft | 211 kts | 104° |
| 2026-04-19 21:51 | 33.43364 | -118.08863 | 12100 ft | 210 kts | 114° |
| 2026-04-19 21:51 | 33.42630 | -118.07353 | 12177 ft | 213 kts | 134° |
| 2026-04-19 21:51 | 33.41729 | -118.05978 | 12518 ft | 208 kts | 124° |
| 2026-04-19 21:52 | 33.41190 | -118.04371 | 12693 ft | 217 kts | 108° |
| 2026-04-19 21:52 | 33.40886 | -118.02595 | 12903 ft | 217 kts | 102° |
| 2026-04-19 21:52 | 33.40898 | -118.00769 | 13088 ft | 223 kts | 87° |
| 2026-04-19 21:52 | 33.41082 | -117.98926 | 13315 ft | 221 kts | 90° |
| 2026-04-19 21:53 | 33.41083 | -117.97106 | 13556 ft | 220 kts | 93° |
| 2026-04-19 21:53 | 33.41096 | -117.95258 | 13625 ft | 224 kts | 97° |
| 2026-04-19 21:53 | 33.40788 | -117.93448 | 13744 ft | 220 kts | 116° |
| 2026-04-19 21:53 | 33.39875 | -117.92021 | 13728 ft | 220 kts | 148° |
| 2026-04-19 21:54 | 33.38569 | -117.91098 | 13929 ft | 211 kts | 149° |
| 2026-04-19 21:54 | 33.37371 | -117.90154 | 14527 ft | 205 kts | 145° |
| 2026-04-19 21:54 | 33.36370 | -117.88904 | 14876 ft | 220 kts | 126° |
| 2026-04-19 21:54 | 33.35883 | -117.87124 | 15299 ft | 230 kts | 97° |
| 2026-04-19 21:55 | 33.35877 | -117.85212 | 15832 ft | 228 kts | 91° |
| 2026-04-19 21:55 | 33.35988 | -117.83358 | 16271 ft | 232 kts | 88° |
| 2026-04-19 21:55 | 33.35968 | -117.81388 | 16528 ft | 236 kts | 101° |
| 2026-04-19 21:56 | 33.35223 | -117.75448 | 17638 ft | 240 kts | 106° |
| 2026-04-19 21:56 | 33.34880 | -117.74180 | 17882 ft | 236 kts | 117° |
| 2026-04-19 21:56 | 33.34082 | -117.72497 | 18244 ft | 232 kts | 128° |
| 2026-04-19 21:57 | 33.33162 | -117.70900 | 18523 ft | 233 kts | 128° |
| 2026-04-19 21:57 | 33.31977 | -117.68734 | 18850 ft | 235 kts | 126° |
| 2026-04-19 21:57 | 33.31385 | -117.67612 | 18923 ft | 241 kts | 126° |
| 2026-04-19 21:57 | 33.30216 | -117.65326 | 19162 ft | 240 kts | 126° |
| 2026-04-19 21:58 | 33.29625 | -117.64193 | 19474 ft | 234 kts | 126° |
| 2026-04-19 21:58 | 33.28784 | -117.62532 | 19590 ft | 243 kts | 124° |
| 2026-04-19 21:58 | 33.27976 | -117.60759 | 19726 ft | 245 kts | 121° |
| 2026-04-19 21:58 | 33.27087 | -117.59031 | 20000 ft | 241 kts | 129° |
| 2026-04-19 21:59 | 33.26059 | -117.57457 | 20244 ft | 237 kts | 134° |
| 2026-04-19 21:59 | 33.24946 | -117.55971 | 20514 ft | 244 kts | 136° |
| 2026-04-19 21:59 | 33.23746 | -117.54532 | 20829 ft | 244 kts | 142° |
| 2026-04-19 21:59 | 33.22437 | -117.53267 | 21240 ft | 241 kts | 146° |
| 2026-04-19 22:00 | 33.21098 | -117.52035 | 21515 ft | 245 kts | 146° |
| 2026-04-19 22:00 | 33.19714 | -117.50844 | 21838 ft | 244 kts | 149° |
| 2026-04-19 22:00 | 33.18310 | -117.49728 | 22282 ft | 241 kts | 150° |
| 2026-04-19 22:00 | 33.16876 | -117.48617 | 22387 ft | 250 kts | 152° |
| 2026-04-19 22:01 | 33.15366 | -117.47653 | 22810 ft | 243 kts | 158° |
| 2026-04-19 22:01 | 33.13793 | -117.46881 | 23020 ft | 245 kts | 162° |
| 2026-04-19 22:01 | 33.12204 | -117.46176 | 23410 ft | 242 kts | 164° |
| 2026-04-19 22:01 | 33.10590 | -117.45543 | 23558 ft | 247 kts | 167° |
| 2026-04-19 22:02 | 33.08949 | -117.45044 | 23973 ft | 238 kts | 169° |
| 2026-04-19 22:02 | 33.07374 | -117.44519 | 24382 ft | 235 kts | 167° |
| 2026-04-19 22:02 | 33.05772 | -117.43968 | 24463 ft | 245 kts | 168° |
| 2026-04-19 22:02 | 33.04181 | -117.43438 | 24903 ft | 237 kts | 166° |
| 2026-04-19 22:03 | 33.02571 | -117.42812 | 24851 ft | 251 kts | 165° |
| 2026-04-19 22:03 | 33.00923 | -117.42145 | 24776 ft | 234 kts | 167° |
| 2026-04-19 22:03 | 32.99338 | -117.42213 | 23460 ft | 261 kts | 202° |
| 2026-04-19 22:03 | 32.97582 | -117.42425 | 23807 ft | 238 kts | 179° |
| 2026-04-19 22:04 | 32.95955 | -117.42070 | 23976 ft | 240 kts | 166° |
| 2026-04-19 22:04 | 32.94390 | -117.41290 | 23981 ft | 244 kts | 156° |
| 2026-04-19 22:04 | 32.92914 | -117.40382 | 24235 ft | 239 kts | 156° |
| 2026-04-19 22:04 | 32.91430 | -117.39468 | 24314 ft | 241 kts | 156° |
| 2026-04-19 22:05 | 32.89927 | -117.38554 | 24395 ft | 241 kts | 155° |
| 2026-04-19 22:05 | 32.88467 | -117.37607 | 24527 ft | 242 kts | 155° |
| 2026-04-19 22:05 | 32.86981 | -117.36624 | 24615 ft | 240 kts | 155° |
| 2026-04-19 22:05 | 32.85549 | -117.35686 | 24878 ft | 237 kts | 155° |
| 2026-04-19 22:06 | 32.84108 | -117.34725 | 25120 ft | 233 kts | 153° |
| 2026-04-19 22:06 | 32.82714 | -117.33660 | 25075 ft | 243 kts | 149° |
| 2026-04-19 22:06 | 32.81304 | -117.32512 | 25218 ft | 246 kts | 149° |
| 2026-04-19 22:06 | 32.79933 | -117.31368 | 25505 ft | 244 kts | 147° |
| 2026-04-19 22:07 | 32.78633 | -117.30079 | 25788 ft | 244 kts | 142° |
| 2026-04-19 22:07 | 32.77354 | -117.28698 | 25925 ft | 247 kts | 141° |
| 2026-04-19 22:07 | 32.76066 | -117.27328 | 25978 ft | 255 kts | 141° |
| 2026-04-19 22:07 | 32.74717 | -117.25891 | 25847 ft | 265 kts | 141° |
| 2026-04-19 22:08 | 32.73374 | -117.24458 | 26270 ft | 252 kts | 142° |
| 2026-04-19 22:08 | 32.72057 | -117.23071 | 26418 ft | 254 kts | 141° |
| 2026-04-19 22:08 | 32.70761 | -117.21623 | 26507 ft | 258 kts | 140° |
| 2026-04-19 22:08 | 32.69446 | -117.20156 | 26538 ft | 262 kts | 141° |
| 2026-04-19 22:09 | 32.68048 | -117.18709 | 26637 ft | 262 kts | 144° |
| 2026-04-19 22:09 | 32.66662 | -117.17378 | 26803 ft | 259 kts | 146° |
| 2026-04-19 22:09 | 32.65187 | -117.16204 | 27010 ft | 249 kts | 156° |
| 2026-04-19 22:09 | 32.63674 | -117.15251 | 27223 ft | 249 kts | 155° |
| 2026-04-19 22:10 | 32.62139 | -117.14281 | 27250 ft | 254 kts | 155° |
| 2026-04-19 22:10 | 32.60562 | -117.13303 | 27339 ft | 255 kts | 156° |
| 2026-04-19 22:10 | 32.59022 | -117.12335 | 27710 ft | 245 kts | 156° |
| 2026-04-19 22:10 | 32.57453 | -117.11464 | 27811 ft | 244 kts | 161° |
| 2026-04-19 22:11 | 32.55885 | -117.10770 | 28140 ft | 241 kts | 163° |
| 2026-04-19 22:11 | 32.54232 | -117.10128 | 27893 ft | 255 kts | 168° |
| 2026-04-19 22:11 | 32.52645 | -117.09722 | 28972 ft | 214 kts | 173° |
| 2026-04-19 22:11 | 32.51164 | -117.09353 | 29216 ft | 223 kts | 170° |
| 2026-04-19 22:12 | 32.49658 | -117.08899 | 29515 ft | 225 kts | 167° |
| 2026-04-19 22:12 | 32.48327 | -117.08422 | 29679 ft | 231 kts | 164° |
| 2026-04-19 22:12 | 32.46719 | -117.08311 | 28315 ft | 244 kts | 215° |
| 2026-04-19 22:12 | 32.46735 | -117.10132 | 26345 ft | 283 kts | 329° |
| 2026-04-19 22:13 | 32.48559 | -117.10462 | 26305 ft | 246 kts | 359° |
| 2026-04-19 22:13 | 32.50267 | -117.10337 | 25122 ft | 258 kts | 1° |
| 2026-04-19 22:13 | 32.52093 | -117.10179 | 24084 ft | 264 kts | 1° |
| 2026-04-19 22:13 | 32.53928 | -117.10052 | 23040 ft | 263 kts | 357° |
| 2026-04-19 22:14 | 32.55700 | -117.10192 | 22104 ft | 256 kts | 354° |
| 2026-04-19 22:14 | 32.57438 | -117.10144 | 21061 ft | 243 kts | 20° |
| 2026-04-19 22:14 | 32.59055 | -117.09700 | 19382 ft | 243 kts | 33° |
| 2026-04-19 22:14 | 32.60686 | -117.08888 | 17707 ft | 256 kts | 28° |
| 2026-04-19 22:15 | 32.62303 | -117.08025 | 16230 ft | 264 kts | 22° |
| 2026-04-19 22:15 | 32.64053 | -117.07334 | 14845 ft | 263 kts | 14° |
| 2026-04-19 22:15 | 32.65777 | -117.06977 | 12499 ft | 262 kts | 2° |
| 2026-04-19 22:15 | 32.67520 | -117.07475 | 10046 ft | 254 kts | 335° |
| 2026-04-19 22:16 | 32.68982 | -117.08672 | 6073 ft | 250 kts | 318° |
| 2026-04-19 22:16 | 32.70317 | -117.10279 | 3014 ft | 270 kts | 304° |
| 2026-04-19 22:16 | 32.71167 | -117.11936 | 2374 ft | 193 kts | 277° |
| 2026-04-19 22:16 | 32.71379 | -117.12763 | 1911 ft | 173 kts | 274° |